Airfield :
LOGIN :

Register | Disclaimer

   EN    FR    IT 

 










Legend :    VFR   Marginal VFR   IFR   Intensive IFR   Very Intensive IFR
Visi :
Ceiling :
>= 8 km
>= 3000ft
5 to 8 km
1000 to 3000 ft
1500m to 5 km
500 to 1000 ft
800 to 1500m
200 to 500 ft
< 800m
< 200 ft
Symbols :   Thunderstorms  Fog  Heavy snow  Heavy precipitations  Wind > 20 kt
SIGMETs :     Misc.  Thunderstorms  Icing  Turbulence  Mountain Waves  Volcanic Ashes







- Airport Elevation : 20 ft
- IATA code : DLM


LTBS - Dalaman

CURRENT METAR :
  • 152050Z 08004KT 9999 SCT030 BKN100 09/08 Q1014 NOSIG RMK RWY19 35004KT 310V020

EXPIRED METARs :
  • 152020Z 10004KT 9999 SCT030 BKN100 09/08 Q1014 NOSIG RMK RWY19 06004KT
  • 151950Z 08003KT 9999 SCT030 BKN100 09/08 Q1014 NOSIG RMK RWY19 00000KT
  • 151920Z VRB01KT 9999 SCT030 BKN100 10/08 Q1013 NOSIG
  • 151850Z 32003KT 9999 SCT025 BKN080 10/08 Q1013 RESHRA NOSIG RMK RWY19 29003KT 260V320
  • 151820Z 04005KT 350V070 9999 -SHRA FEW020CB SCT025 BKN080 10/08 Q1013 NOSIG RMK RWY19 28002KT

TAF COR TAF LTBS
Valid from the 15 at 18:00 until the 16 at 18:00 UTC


151640Z 1518/1618 VRB02KT 9999 SCT030 BKN100
TEMPO 1518/1522 -SHRA
TEMPO 1522/1602 -SHRA
BECMG 1608/1610 21012KT
PROB30
TEMPO 1612/1616 -SHRA
BECMG 1615/1617 VRB02KT
No reported NOTAMs for that airfield.



MET'MAP, your aeronautical weather chart ! - Copyright ORBIFLY December 2007 - Disclaimer

ORBIFLY MET'MAP TEAM :

Programming & Development : Alexandra Zaïnal
Concept & Development : Baudouin d'Aumeries
Co-Development & Prog : Marc-Olivier Méhu
Technical & hardware support : Manuel Goepfert

Contact : metmap@orbifly.com




SOURCES & CREDITS :

   NOAA